createdAt,value
2018-09-22T00:00:35.329Z,0.00
2018-09-22T00:01:35.311Z,0.00
2018-09-22T00:02:35.284Z,0.00
2018-09-22T00:03:35.265Z,0.00
2018-09-22T00:04:35.243Z,0.00
2018-09-22T00:05:35.225Z,0.00
2018-09-22T00:06:35.210Z,0.00
2018-09-22T00:07:35.179Z,0.00
2018-09-22T00:08:35.173Z,0.00
2018-09-22T00:09:35.143Z,0.00
2018-09-22T00:10:35.123Z,0.00
2018-09-22T00:11:35.113Z,0.00
2018-09-22T00:12:35.084Z,0.00
2018-09-22T00:13:35.060Z,0.00
2018-09-22T00:14:35.038Z,0.00
2018-09-22T00:15:35.021Z,0.00
2018-09-22T00:16:35.000Z,0.00
2018-09-22T00:17:34.982Z,0.00
2018-09-22T00:18:34.961Z,0.00
2018-09-22T00:19:34.947Z,0.00
2018-09-22T00:20:34.919Z,0.00
2018-09-22T00:21:34.898Z,0.00
2018-09-22T00:22:34.877Z,0.00
2018-09-22T00:23:34.858Z,0.00
2018-09-22T00:24:34.837Z,0.00
2018-09-22T00:25:34.816Z,0.00
2018-09-22T00:26:34.795Z,0.00
2018-09-22T00:27:34.776Z,0.00
2018-09-22T00:28:34.753Z,0.00
2018-09-22T00:29:34.734Z,0.00
2018-09-22T00:30:34.723Z,0.00
2018-09-22T00:31:34.693Z,0.00
2018-09-22T00:32:34.674Z,0.00
2018-09-22T00:33:34.654Z,0.00
2018-09-22T00:34:34.631Z,0.00
2018-09-22T00:35:34.609Z,0.00
2018-09-22T00:36:34.591Z,0.00
2018-09-22T00:37:34.560Z,0.00
2018-09-22T00:38:34.549Z,0.00
2018-09-22T00:39:34.530Z,0.00
2018-09-22T00:40:34.506Z,0.00
2018-09-22T00:41:34.485Z,0.00
2018-09-22T00:42:34.465Z,0.00
2018-09-22T00:43:34.446Z,0.00
2018-09-22T00:44:34.424Z,0.00
2018-09-22T00:45:34.404Z,0.00
2018-09-22T00:46:34.383Z,0.00
2018-09-22T00:47:34.372Z,0.00
2018-09-22T00:48:34.341Z,0.00
2018-09-22T00:49:34.320Z,0.00
2018-09-22T00:50:34.297Z,0.00
2018-09-22T00:51:34.278Z,0.00
2018-09-22T00:52:34.256Z,0.00
2018-09-22T00:53:34.236Z,0.00
2018-09-22T00:54:34.215Z,0.00
2018-09-22T00:55:34.200Z,0.00
2018-09-22T00:56:34.175Z,0.00
2018-09-22T00:57:34.151Z,0.00
2018-09-22T00:58:34.139Z,0.00
2018-09-22T00:59:34.111Z,0.00
2018-09-22T01:00:34.088Z,0.00
2018-09-22T01:01:34.067Z,0.00
2018-09-22T01:02:34.051Z,0.00
2018-09-22T01:03:34.027Z,0.00
2018-09-22T01:04:34.005Z,0.00
2018-09-22T01:05:33.985Z,0.00
2018-09-22T01:06:33.963Z,0.00
2018-09-22T01:07:33.945Z,0.00
2018-09-22T01:08:33.924Z,0.00
2018-09-22T01:09:33.905Z,0.00
2018-09-22T01:10:33.880Z,0.00
2018-09-22T01:11:33.861Z,0.00
2018-09-22T01:12:33.840Z,0.00
2018-09-22T01:13:33.816Z,0.00
2018-09-22T01:14:33.800Z,0.00
2018-09-22T01:15:33.808Z,0.00
2018-09-22T01:16:33.757Z,0.00
2018-09-22T01:17:33.733Z,0.00
2018-09-22T01:18:33.712Z,0.00
2018-09-22T01:19:33.693Z,0.00
2018-09-22T01:20:33.671Z,0.00
2018-09-22T01:21:33.650Z,0.00
2018-09-22T01:22:33.630Z,0.00
2018-09-22T01:23:33.614Z,0.00
2018-09-22T01:24:33.587Z,0.00
2018-09-22T01:25:33.570Z,0.00
2018-09-22T01:26:33.546Z,0.00
2018-09-22T01:27:33.539Z,0.00
2018-09-22T01:28:33.504Z,0.00
2018-09-22T01:29:33.485Z,0.00
2018-09-22T01:30:33.463Z,0.00
2018-09-22T01:31:33.444Z,0.00
2018-09-22T01:32:33.420Z,0.00
2018-09-22T01:33:33.406Z,0.00
2018-09-22T01:34:33.384Z,0.00
2018-09-22T01:35:33.358Z,0.00
2018-09-22T01:36:33.339Z,0.00
2018-09-22T01:37:33.319Z,0.00
2018-09-22T01:38:33.299Z,0.00
2018-09-22T01:39:33.275Z,0.00
2018-09-22T01:40:33.256Z,0.00
2018-09-22T01:41:33.232Z,0.00
2018-09-22T01:42:33.212Z,0.00
2018-09-22T01:43:33.191Z,0.00
2018-09-22T01:44:33.170Z,0.00
2018-09-22T01:45:33.151Z,0.00
2018-09-22T01:46:33.129Z,0.00
2018-09-22T01:47:33.107Z,0.00
2018-09-22T01:48:33.089Z,0.00
2018-09-22T01:49:33.065Z,0.00
2018-09-22T01:50:33.046Z,0.00
2018-09-22T01:51:33.027Z,0.00
2018-09-22T01:52:33.041Z,0.00
2018-09-22T01:53:32.983Z,0.00
2018-09-22T01:54:32.962Z,0.00
2018-09-22T01:55:32.941Z,0.00
2018-09-22T01:56:32.918Z,0.00
2018-09-22T01:57:32.903Z,0.00
2018-09-22T01:58:32.877Z,0.00
2018-09-22T01:59:32.860Z,0.00
2018-09-22T02:00:32.834Z,0.00
2018-09-22T02:01:32.814Z,0.00
2018-09-22T02:02:32.794Z,0.00
2018-09-22T02:03:32.770Z,0.00
2018-09-22T02:04:32.750Z,0.00
2018-09-22T02:05:32.729Z,0.00
2018-09-22T02:06:32.709Z,0.00
2018-09-22T02:07:32.689Z,0.00
2018-09-22T02:08:32.664Z,0.00
2018-09-22T02:09:32.644Z,0.00
2018-09-22T02:10:32.671Z,0.00
2018-09-22T02:11:32.602Z,0.00
2018-09-22T02:12:32.581Z,0.00
2018-09-22T02:13:32.561Z,0.00
2018-09-22T02:14:32.540Z,0.00
2018-09-22T02:15:32.521Z,0.00
2018-09-22T02:16:32.496Z,0.00
2018-09-22T02:17:32.480Z,0.00
2018-09-22T02:18:32.453Z,0.00
2018-09-22T02:19:32.436Z,0.00
2018-09-22T02:20:32.414Z,0.00
2018-09-22T02:21:32.396Z,0.00
2018-09-22T02:22:32.368Z,0.00
2018-09-22T02:23:32.349Z,0.00
2018-09-22T02:24:32.332Z,0.00
2018-09-22T02:25:32.308Z,0.00
2018-09-22T02:26:32.289Z,0.00
2018-09-22T02:27:32.264Z,0.00
2018-09-22T02:28:32.243Z,0.00
2018-09-22T02:29:32.222Z,0.00
2018-09-22T02:30:32.202Z,0.00
2018-09-22T02:31:32.178Z,0.00
2018-09-22T02:32:32.158Z,0.00
2018-09-22T02:33:32.139Z,0.00
2018-09-22T02:34:32.113Z,0.00
2018-09-22T02:35:32.096Z,0.00
2018-09-22T02:36:32.077Z,0.00
2018-09-22T02:37:32.050Z,0.00
2018-09-22T02:38:32.032Z,0.00
2018-09-22T02:39:32.008Z,0.00
2018-09-22T02:40:31.985Z,0.00
2018-09-22T02:41:31.967Z,0.00
2018-09-22T02:42:31.944Z,0.00
2018-09-22T02:43:31.923Z,0.00
2018-09-22T02:44:31.906Z,0.00
2018-09-22T02:45:31.880Z,0.00
2018-09-22T02:46:31.863Z,0.00
2018-09-22T02:47:31.838Z,0.00
2018-09-22T02:48:31.814Z,0.00
2018-09-22T02:49:31.798Z,0.00
2018-09-22T02:50:31.777Z,0.00
2018-09-22T02:51:31.753Z,0.00
2018-09-22T02:52:31.732Z,0.00
2018-09-22T02:53:31.713Z,0.00
2018-09-22T02:54:31.690Z,0.00
2018-09-22T02:55:31.666Z,0.00
2018-09-22T02:56:31.645Z,0.00
2018-09-22T02:57:31.625Z,0.00
2018-09-22T02:58:31.607Z,0.00
2018-09-22T02:59:31.593Z,0.00
2018-09-22T03:00:31.566Z,0.00
2018-09-22T03:01:31.539Z,0.00
2018-09-22T03:02:31.517Z,0.00
2018-09-22T03:03:31.499Z,0.00
2018-09-22T03:04:31.485Z,0.00
2018-09-22T03:05:31.456Z,0.00
2018-09-22T03:06:31.497Z,0.00
2018-09-22T03:07:31.411Z,0.00
2018-09-22T03:08:31.390Z,0.00
2018-09-22T03:09:31.371Z,0.00
2018-09-22T03:10:31.347Z,0.00
2018-09-22T03:11:31.344Z,0.00
2018-09-22T03:12:31.301Z,0.00
2018-09-22T03:13:31.282Z,0.00
2018-09-22T03:14:31.264Z,0.00
2018-09-22T03:15:31.313Z,0.00
2018-09-22T03:16:31.217Z,0.00
2018-09-22T03:17:31.188Z,0.00
2018-09-22T03:18:31.176Z,0.00
2018-09-22T03:19:31.154Z,0.00
2018-09-22T03:20:31.136Z,0.00
2018-09-22T03:21:31.110Z,0.00
2018-09-22T03:22:31.090Z,0.00
2018-09-22T03:23:31.068Z,0.00
2018-09-22T03:24:31.046Z,0.00
2018-09-22T03:25:31.029Z,0.00
2018-09-22T03:26:31.009Z,0.00
2018-09-22T03:27:30.982Z,0.00
2018-09-22T03:28:30.967Z,0.00
2018-09-22T03:29:30.943Z,0.00
2018-09-22T03:30:30.923Z,0.00
2018-09-22T03:31:30.902Z,0.00
2018-09-22T03:32:30.874Z,0.00
2018-09-22T03:33:30.856Z,0.00
2018-09-22T03:34:30.834Z,0.00
2018-09-22T03:35:30.813Z,0.00
2018-09-22T03:36:30.791Z,0.00
2018-09-22T03:37:30.768Z,0.00
2018-09-22T03:38:30.749Z,0.00
2018-09-22T03:39:30.730Z,0.00
2018-09-22T03:40:30.706Z,0.00
2018-09-22T03:41:30.683Z,0.00
2018-09-22T03:42:30.663Z,0.00
2018-09-22T03:43:30.642Z,0.00
2018-09-22T03:44:30.618Z,0.00
2018-09-22T03:45:30.598Z,0.00
2018-09-22T03:46:30.576Z,0.00
2018-09-22T03:47:30.556Z,0.00
2018-09-22T03:48:30.532Z,0.00
2018-09-22T03:49:30.514Z,0.00
2018-09-22T03:50:30.493Z,0.00
2018-09-22T03:51:30.472Z,0.00
2018-09-22T03:52:30.447Z,0.00
2018-09-22T03:53:30.428Z,0.00
2018-09-22T03:54:30.405Z,0.00
2018-09-22T03:55:30.386Z,0.00
2018-09-22T03:56:30.361Z,0.00
2018-09-22T03:57:30.342Z,0.00
2018-09-22T03:58:30.324Z,0.00
2018-09-22T03:59:30.298Z,0.00
2018-09-22T04:00:30.276Z,0.00
2018-09-22T04:01:30.262Z,0.00
2018-09-22T04:02:30.237Z,0.00
2018-09-22T04:03:30.213Z,0.00
2018-09-22T04:04:30.193Z,0.00
2018-09-22T04:05:30.170Z,0.00
2018-09-22T04:06:30.152Z,0.00
2018-09-22T04:07:30.132Z,0.00
2018-09-22T04:08:30.111Z,0.00
2018-09-22T04:09:30.089Z,0.00
2018-09-22T04:10:30.064Z,0.00
2018-09-22T04:11:30.046Z,0.00
2018-09-22T04:12:30.023Z,0.00
2018-09-22T04:13:30.000Z,0.00
2018-09-22T04:14:29.979Z,0.00
2018-09-22T04:15:29.957Z,0.00
2018-09-22T04:16:29.938Z,0.00
2018-09-22T04:17:29.915Z,0.00
2018-09-22T04:18:29.893Z,0.00
2018-09-22T04:19:29.872Z,0.00
2018-09-22T04:20:29.849Z,0.00
2018-09-22T04:21:29.828Z,0.00
2018-09-22T04:22:29.811Z,0.00
2018-09-22T04:23:29.787Z,0.00
2018-09-22T04:24:29.764Z,0.00
2018-09-22T04:25:29.743Z,0.00
2018-09-22T04:26:29.721Z,0.00
2018-09-22T04:27:29.701Z,0.00
2018-09-22T04:28:29.680Z,0.00
2018-09-22T04:29:29.664Z,0.00
2018-09-22T04:30:29.636Z,0.00
2018-09-22T04:31:29.615Z,0.00
2018-09-22T04:32:29.593Z,0.00
2018-09-22T04:33:29.671Z,0.00
2018-09-22T04:34:29.554Z,0.00
2018-09-22T04:35:29.537Z,0.00
2018-09-22T04:36:29.508Z,0.00
2018-09-22T04:37:29.488Z,0.00
2018-09-22T04:38:29.471Z,0.00
2018-09-22T04:39:29.447Z,0.00
2018-09-22T04:40:29.425Z,0.00
2018-09-22T04:41:29.406Z,0.00
2018-09-22T04:42:29.383Z,0.00
2018-09-22T04:43:29.358Z,0.00
2018-09-22T04:44:29.342Z,0.00
2018-09-22T04:45:29.317Z,0.00
2018-09-22T04:46:29.299Z,0.00
2018-09-22T04:47:29.279Z,0.00
2018-09-22T04:48:29.252Z,0.00
2018-09-22T04:49:29.235Z,0.00
2018-09-22T04:50:29.210Z,0.00
2018-09-22T04:51:29.188Z,0.00
2018-09-22T04:52:29.169Z,0.00
2018-09-22T04:53:29.154Z,0.00
2018-09-22T04:54:29.124Z,0.00
2018-09-22T04:55:29.103Z,0.00
2018-09-22T04:56:29.089Z,0.00
2018-09-22T04:57:29.079Z,0.00
2018-09-22T04:58:29.044Z,0.00
2018-09-22T04:59:29.019Z,0.00
2018-09-22T05:00:28.997Z,0.00
2018-09-22T05:01:28.975Z,0.00
2018-09-22T05:02:28.959Z,0.00
2018-09-22T05:03:28.934Z,0.00
2018-09-22T05:04:28.913Z,0.00
2018-09-22T05:05:28.891Z,0.00
2018-09-22T05:06:28.870Z,0.00
2018-09-22T05:07:28.850Z,0.00
2018-09-22T05:08:28.827Z,5.63
2018-09-22T05:09:28.806Z,5.63
2018-09-22T05:10:28.789Z,5.63
2018-09-22T05:11:28.765Z,5.63
2018-09-22T05:12:28.743Z,5.63
2018-09-22T05:13:28.723Z,5.63
2018-09-22T05:14:28.699Z,5.63
2018-09-22T05:15:28.688Z,5.63
2018-09-22T05:16:28.658Z,5.63
2018-09-22T05:17:28.638Z,11.25
2018-09-22T05:18:28.617Z,11.25
2018-09-22T05:19:28.588Z,11.25
2018-09-22T05:20:28.573Z,5.63
2018-09-22T05:21:28.558Z,5.63
2018-09-22T05:22:28.530Z,5.63
2018-09-22T05:23:28.509Z,5.63
2018-09-22T05:24:28.485Z,11.25
2018-09-22T05:25:28.469Z,11.25
2018-09-22T05:26:28.448Z,11.25
2018-09-22T05:27:28.428Z,11.25
2018-09-22T05:28:28.402Z,11.25
2018-09-22T05:29:28.386Z,11.25
2018-09-22T05:30:28.361Z,11.25
2018-09-22T05:31:28.342Z,11.25
2018-09-22T05:32:28.319Z,16.88
2018-09-22T05:33:28.335Z,16.88
2018-09-22T05:34:28.280Z,22.50
2018-09-22T05:35:28.262Z,22.50
2018-09-22T05:36:28.239Z,22.50
2018-09-22T05:37:28.214Z,28.13
2018-09-22T05:38:28.192Z,28.13
2018-09-22T05:39:28.170Z,33.75
2018-09-22T05:40:28.152Z,33.75
2018-09-22T05:41:28.127Z,33.75
2018-09-22T05:42:28.110Z,39.38
2018-09-22T05:43:28.085Z,39.38
2018-09-22T05:44:28.063Z,45.00
2018-09-22T05:45:28.045Z,56.25
2018-09-22T05:46:28.021Z,50.63
2018-09-22T05:47:28.001Z,39.38
2018-09-22T05:48:27.987Z,39.38
2018-09-22T05:49:27.960Z,39.38
2018-09-22T05:50:27.937Z,39.38
2018-09-22T05:51:27.915Z,50.63
2018-09-22T05:52:27.897Z,50.63
2018-09-22T05:53:27.872Z,50.63
2018-09-22T05:54:27.856Z,50.63
2018-09-22T05:55:27.839Z,56.25
2018-09-22T05:56:27.811Z,50.63
2018-09-22T05:57:27.786Z,50.63
2018-09-22T05:58:27.784Z,45.00
2018-09-22T05:59:27.747Z,45.00
2018-09-22T06:00:27.726Z,50.63
2018-09-22T06:01:27.704Z,56.25
2018-09-22T06:02:27.682Z,73.13
2018-09-22T06:03:27.678Z,78.75
2018-09-22T06:04:27.640Z,78.75
2018-09-22T06:05:27.618Z,84.38
2018-09-22T06:06:27.643Z,84.38
2018-09-22T06:07:27.579Z,84.38
2018-09-22T06:08:27.555Z,84.38
2018-09-22T06:09:27.560Z,84.38
2018-09-22T06:10:27.517Z,84.38
2018-09-22T06:11:27.493Z,90.00
2018-09-22T06:12:27.469Z,90.00
2018-09-22T06:13:27.444Z,90.00
2018-09-22T06:14:27.429Z,95.63
2018-09-22T06:15:27.410Z,95.63
2018-09-22T06:16:27.390Z,106.88
2018-09-22T06:17:27.363Z,118.13
2018-09-22T06:18:27.345Z,129.38
2018-09-22T06:19:27.326Z,151.88
2018-09-22T06:20:27.306Z,163.13
2018-09-22T06:21:27.283Z,174.38
2018-09-22T06:22:27.265Z,157.50
2018-09-22T06:23:27.304Z,151.88
2018-09-22T06:24:27.217Z,151.88
2018-09-22T06:25:27.196Z,151.88
2018-09-22T06:26:27.181Z,140.63
2018-09-22T06:27:27.160Z,112.50
2018-09-22T06:28:27.134Z,101.25
2018-09-22T06:29:27.113Z,106.88
2018-09-22T06:30:27.092Z,129.38
2018-09-22T06:31:27.071Z,151.88
2018-09-22T06:32:27.057Z,174.38
2018-09-22T06:33:27.030Z,163.13
2018-09-22T06:34:27.009Z,123.75
2018-09-22T06:35:26.990Z,129.38
2018-09-22T06:36:26.969Z,123.75
2018-09-22T06:37:26.959Z,151.88
2018-09-22T06:38:26.924Z,208.13
2018-09-22T06:39:26.906Z,191.25
2018-09-22T06:40:26.883Z,180.00
2018-09-22T06:41:26.867Z,129.38
2018-09-22T06:42:26.842Z,129.38
2018-09-22T06:43:26.822Z,135.00
2018-09-22T06:44:26.800Z,174.38
2018-09-22T06:45:26.786Z,230.63
2018-09-22T06:46:26.762Z,180.00
2018-09-22T06:47:26.739Z,168.75
2018-09-22T06:48:26.718Z,196.88
2018-09-22T06:49:26.696Z,225.00
2018-09-22T06:50:26.676Z,225.00
2018-09-22T06:51:26.659Z,320.63
2018-09-22T06:52:26.633Z,247.50
2018-09-22T06:53:26.614Z,247.50
2018-09-22T06:54:26.595Z,309.38
2018-09-22T06:55:26.579Z,298.13
2018-09-22T06:56:26.551Z,258.75
2018-09-22T06:57:26.531Z,208.13
2018-09-22T06:58:26.514Z,180.00
2018-09-22T06:59:26.494Z,135.00
2018-09-22T07:00:26.474Z,135.00
2018-09-22T07:01:26.451Z,129.38
2018-09-22T07:02:26.431Z,146.25
2018-09-22T07:03:26.413Z,180.00
2018-09-22T07:04:26.429Z,163.13
2018-09-22T07:05:26.370Z,174.38
2018-09-22T07:06:26.409Z,191.25
2018-09-22T07:07:26.333Z,225.00
2018-09-22T07:08:26.309Z,230.63
2018-09-22T07:09:26.289Z,236.25
2018-09-22T07:10:26.270Z,236.25
2018-09-22T07:11:26.250Z,230.63
2018-09-22T07:12:26.228Z,219.38
2018-09-22T07:13:26.208Z,202.50
2018-09-22T07:14:26.191Z,196.88
2018-09-22T07:15:26.171Z,196.88
2018-09-22T07:16:26.154Z,191.25
2018-09-22T07:17:26.128Z,213.75
2018-09-22T07:18:26.116Z,219.38
2018-09-22T07:19:26.126Z,225.00
2018-09-22T07:20:26.081Z,219.38
2018-09-22T07:21:26.051Z,219.38
2018-09-22T07:22:26.032Z,225.00
2018-09-22T07:23:26.013Z,236.25
2018-09-22T07:24:25.991Z,236.25
2018-09-22T07:25:26.003Z,225.00
2018-09-22T07:26:25.951Z,213.75
2018-09-22T07:27:25.932Z,213.75
2018-09-22T07:28:25.913Z,208.13
2018-09-22T07:29:25.892Z,191.25
2018-09-22T07:30:25.876Z,185.63
2018-09-22T07:31:25.853Z,191.25
2018-09-22T07:32:25.833Z,208.13
2018-09-22T07:33:25.814Z,208.13
2018-09-22T07:34:25.795Z,202.50
2018-09-22T07:35:25.774Z,219.38
2018-09-22T07:36:25.757Z,213.75
2018-09-22T07:37:25.733Z,208.13
2018-09-22T07:38:25.713Z,208.13
2018-09-22T07:39:25.776Z,208.13
2018-09-22T07:40:25.678Z,213.75
2018-09-22T07:41:25.658Z,213.75
2018-09-22T07:42:25.635Z,219.38
2018-09-22T07:43:25.614Z,225.00
2018-09-22T07:44:25.599Z,230.63
2018-09-22T07:45:25.578Z,230.63
2018-09-22T07:46:25.554Z,225.00
2018-09-22T07:47:25.641Z,225.00
2018-09-22T07:48:25.517Z,219.38
2018-09-22T07:49:25.494Z,219.38
2018-09-22T07:50:25.479Z,225.00
2018-09-22T07:51:25.461Z,219.38
2018-09-22T07:52:25.438Z,230.63
2018-09-22T07:53:25.417Z,236.25
2018-09-22T07:54:25.395Z,241.88
2018-09-22T07:55:25.375Z,253.13
2018-09-22T07:56:25.356Z,258.75
2018-09-22T07:57:25.337Z,264.38
2018-09-22T07:58:25.317Z,286.88
2018-09-22T07:59:25.300Z,326.25
2018-09-22T08:00:25.352Z,348.75
2018-09-22T08:01:25.260Z,315.00
2018-09-22T08:02:25.237Z,292.50
2018-09-22T08:03:25.223Z,275.63
2018-09-22T08:04:25.201Z,258.75
2018-09-22T08:05:25.184Z,236.25
2018-09-22T08:06:25.161Z,236.25
2018-09-22T08:07:25.140Z,241.88
2018-09-22T08:08:25.127Z,241.88
2018-09-22T08:09:25.100Z,247.50
2018-09-22T08:10:25.080Z,253.13
2018-09-22T08:11:25.061Z,247.50
2018-09-22T08:12:25.041Z,253.13
2018-09-22T08:13:25.025Z,241.88
2018-09-22T08:14:25.007Z,219.38
2018-09-22T08:15:24.983Z,208.13
2018-09-22T08:16:24.965Z,191.25
2018-09-22T08:17:24.949Z,191.25
2018-09-22T08:18:24.924Z,191.25
2018-09-22T08:19:24.909Z,213.75
2018-09-22T08:20:24.886Z,213.75
2018-09-22T08:21:24.866Z,225.00
2018-09-22T08:22:24.849Z,236.25
2018-09-22T08:23:24.827Z,258.75
2018-09-22T08:24:24.807Z,270.00
2018-09-22T08:25:24.787Z,286.88
2018-09-22T08:26:24.769Z,292.50
2018-09-22T08:27:24.747Z,298.13
2018-09-22T08:28:24.729Z,315.00
2018-09-22T08:29:24.709Z,331.88
2018-09-22T08:30:24.690Z,343.13
2018-09-22T08:31:24.677Z,343.13
2018-09-22T08:32:24.655Z,331.88
2018-09-22T08:33:24.634Z,331.88
2018-09-22T08:34:24.614Z,326.25
2018-09-22T08:35:24.600Z,343.13
2018-09-22T08:36:24.737Z,360.00
2018-09-22T08:37:24.604Z,365.63
2018-09-22T08:38:24.535Z,365.63
2018-09-22T08:39:24.524Z,376.88
2018-09-22T08:40:24.500Z,376.88
2018-09-22T08:41:24.477Z,365.63
2018-09-22T08:42:24.463Z,360.00
2018-09-22T08:43:24.449Z,343.13
2018-09-22T08:44:24.421Z,331.88
2018-09-22T08:45:24.438Z,315.00
2018-09-22T08:46:24.389Z,315.00
2018-09-22T08:47:24.482Z,309.38
2018-09-22T08:48:24.432Z,309.38
2018-09-22T08:49:24.342Z,309.38
2018-09-22T08:50:24.319Z,298.13
2018-09-22T08:51:24.287Z,303.75
2018-09-22T08:52:24.270Z,326.25
2018-09-22T08:53:24.254Z,315.00
2018-09-22T08:54:24.236Z,298.13
2018-09-22T08:55:24.217Z,286.88
2018-09-22T08:56:24.197Z,275.63
2018-09-22T08:57:24.177Z,247.50
2018-09-22T08:58:24.159Z,258.75
2018-09-22T08:59:24.142Z,241.88
2018-09-22T09:00:24.171Z,230.63
2018-09-22T09:01:24.101Z,225.00
2018-09-22T09:02:24.082Z,213.75
2018-09-22T09:03:24.061Z,196.88
2018-09-22T09:04:24.043Z,185.63
2018-09-22T09:05:24.023Z,174.38
2018-09-22T09:06:24.007Z,174.38
2018-09-22T09:07:23.991Z,168.75
2018-09-22T09:08:23.967Z,163.13
2018-09-22T09:09:23.949Z,151.88
2018-09-22T09:10:23.930Z,163.13
2018-09-22T09:11:23.966Z,157.50
2018-09-22T09:12:23.893Z,168.75
2018-09-22T09:13:23.899Z,163.13
2018-09-22T09:14:23.908Z,157.50
2018-09-22T09:15:24.011Z,163.13
2018-09-22T09:16:23.828Z,174.38
2018-09-22T09:17:23.797Z,174.38
2018-09-22T09:18:24.024Z,185.63
2018-09-22T09:19:23.759Z,191.25
2018-09-22T09:20:23.740Z,202.50
2018-09-22T09:21:23.726Z,219.38
2018-09-22T09:22:23.705Z,225.00
2018-09-22T09:23:23.690Z,241.88
2018-09-22T09:24:23.665Z,258.75
2018-09-22T09:25:23.651Z,253.13
2018-09-22T09:26:23.628Z,241.88
2018-09-22T09:27:23.642Z,230.63
2018-09-22T09:28:23.590Z,247.50
2018-09-22T09:29:23.706Z,270.00
2018-09-22T09:30:23.551Z,270.00
2018-09-22T09:31:24.928Z,281.25
2018-09-22T09:32:23.513Z,326.25
2018-09-22T09:33:23.886Z,348.75
2018-09-22T09:34:23.471Z,337.50
2018-09-22T09:35:23.460Z,320.63
2018-09-22T09:36:23.444Z,309.38
2018-09-22T09:37:23.421Z,309.38
2018-09-22T09:38:23.408Z,309.38
2018-09-22T09:39:23.386Z,309.38
2018-09-22T09:40:23.366Z,326.25
2018-09-22T09:41:23.348Z,371.25
2018-09-22T09:42:23.329Z,393.75
2018-09-22T09:43:23.337Z,444.38
2018-09-22T09:44:23.286Z,466.88
2018-09-22T09:45:23.278Z,461.25
2018-09-22T09:46:23.259Z,433.13
2018-09-22T09:47:23.242Z,410.63
2018-09-22T09:48:23.218Z,382.50
2018-09-22T09:49:23.226Z,348.75
2018-09-22T09:50:23.210Z,343.13
2018-09-22T09:51:23.166Z,315.00
2018-09-22T09:52:23.143Z,320.63
2018-09-22T09:53:23.137Z,315.00
2018-09-22T09:54:23.145Z,303.75
2018-09-22T09:55:23.141Z,275.63
2018-09-22T09:56:23.078Z,258.75
2018-09-22T09:57:23.059Z,225.00
2018-09-22T09:58:23.047Z,196.88
2018-09-22T09:59:23.021Z,219.38
2018-09-22T10:00:23.003Z,225.00
2018-09-22T10:01:22.985Z,275.63
2018-09-22T10:02:22.963Z,258.75
2018-09-22T10:03:22.950Z,275.63
2018-09-22T10:04:22.948Z,258.75
2018-09-22T10:05:22.913Z,253.13
2018-09-22T10:06:22.898Z,247.50
2018-09-22T10:07:22.879Z,236.25
2018-09-22T10:08:22.862Z,225.00
2018-09-22T10:09:22.839Z,202.50
2018-09-22T10:10:22.822Z,225.00
2018-09-22T10:11:22.812Z,219.38
2018-09-22T10:12:22.788Z,219.38
2018-09-22T10:13:22.769Z,213.75
2018-09-22T10:14:22.769Z,213.75
2018-09-22T10:15:22.729Z,208.13
2018-09-22T10:16:22.713Z,180.00
2018-09-22T10:17:22.701Z,185.63
2018-09-22T10:18:22.676Z,191.25
2018-09-22T10:19:22.660Z,208.13
2018-09-22T10:20:22.642Z,230.63
2018-09-22T10:21:22.625Z,286.88
2018-09-22T10:22:22.607Z,326.25
2018-09-22T10:23:22.588Z,309.38
2018-09-22T10:24:22.582Z,258.75
2018-09-22T10:25:22.545Z,281.25
2018-09-22T10:26:22.543Z,309.38
2018-09-22T10:27:22.518Z,309.38
2018-09-22T10:28:22.553Z,315.00
2018-09-22T10:29:22.475Z,264.38
2018-09-22T10:30:22.457Z,275.63
2018-09-22T10:31:22.441Z,292.50
2018-09-22T10:32:22.429Z,298.13
2018-09-22T10:33:22.405Z,270.00
2018-09-22T10:34:22.385Z,258.75
2018-09-22T10:35:22.385Z,247.50
2018-09-22T10:36:22.344Z,247.50
2018-09-22T10:37:22.340Z,247.50
2018-09-22T10:38:22.321Z,253.13
2018-09-22T10:39:22.308Z,258.75
2018-09-22T10:40:22.283Z,264.38
2018-09-22T10:41:22.262Z,236.25
2018-09-22T10:42:22.335Z,309.38
2018-09-22T10:43:22.232Z,326.25
2018-09-22T10:44:22.211Z,354.38
2018-09-22T10:45:22.189Z,337.50
2018-09-22T10:46:22.173Z,326.25
2018-09-22T10:47:22.151Z,326.25
2018-09-22T10:48:22.157Z,331.88
2018-09-22T10:49:22.120Z,320.63
2018-09-22T10:50:22.112Z,303.75
2018-09-22T10:51:22.084Z,264.38
2018-09-22T10:52:22.063Z,230.63
2018-09-22T10:53:22.046Z,225.00
2018-09-22T10:54:22.026Z,264.38
2018-09-22T10:55:22.020Z,275.63
2018-09-22T10:56:21.997Z,275.63
2018-09-22T10:57:21.990Z,303.75
2018-09-22T10:58:21.992Z,371.25
2018-09-22T10:59:21.958Z,421.88
2018-09-22T11:00:21.932Z,365.63
2018-09-22T11:01:21.924Z,405.00
2018-09-22T11:02:21.915Z,388.13
2018-09-22T11:03:21.923Z,376.88
2018-09-22T11:04:21.877Z,388.13
2018-09-22T11:05:21.853Z,410.63
2018-09-22T11:06:21.823Z,410.63
2018-09-22T11:07:21.803Z,382.50
2018-09-22T11:08:21.801Z,393.75
2018-09-22T11:09:21.780Z,410.63
2018-09-22T11:10:21.760Z,410.63
2018-09-22T11:11:21.791Z,405.00
2018-09-22T11:12:21.718Z,399.38
2018-09-22T11:13:21.702Z,371.25
2018-09-22T11:14:21.677Z,399.38
2018-09-22T11:15:21.666Z,444.38
2018-09-22T11:16:21.645Z,438.75
2018-09-22T11:17:21.625Z,427.50
2018-09-22T11:18:21.615Z,399.38
2018-09-22T11:19:21.590Z,388.13
2018-09-22T11:20:21.583Z,371.25
2018-09-22T11:21:21.570Z,371.25
2018-09-22T11:22:21.561Z,365.63
2018-09-22T11:23:21.533Z,331.88
2018-09-22T11:24:21.516Z,309.38
2018-09-22T11:25:21.488Z,292.50
2018-09-22T11:26:21.483Z,331.88
2018-09-22T11:27:21.471Z,326.25
2018-09-22T11:28:21.436Z,303.75
2018-09-22T11:29:21.431Z,298.13
2018-09-22T11:30:21.407Z,298.13
2018-09-22T11:31:21.393Z,343.13
2018-09-22T11:32:21.377Z,405.00
2018-09-22T11:33:21.352Z,466.88
2018-09-22T11:34:21.359Z,472.50
2018-09-22T11:35:21.320Z,483.75
2018-09-22T11:36:21.341Z,500.63
2018-09-22T11:37:21.302Z,517.50
2018-09-22T11:38:21.322Z,534.38
2018-09-22T11:39:21.251Z,556.88
2018-09-22T11:40:21.229Z,579.38
2018-09-22T11:41:21.214Z,585.00
2018-09-22T11:42:21.219Z,596.25
2018-09-22T11:43:21.185Z,596.25
2018-09-22T11:44:21.165Z,601.88
2018-09-22T11:45:21.148Z,613.13
2018-09-22T11:46:21.201Z,585.00
2018-09-22T11:47:21.119Z,556.88
2018-09-22T11:48:21.105Z,540.00
2018-09-22T11:49:21.121Z,573.75
2018-09-22T11:50:21.087Z,585.00
2018-09-22T11:51:21.047Z,562.50
2018-09-22T11:52:21.030Z,556.88
2018-09-22T11:53:21.022Z,596.25
2018-09-22T11:54:21.001Z,585.00
2018-09-22T11:55:20.985Z,540.00
2018-09-22T11:56:20.970Z,483.75
2018-09-22T11:57:20.945Z,483.75
2018-09-22T11:58:20.934Z,478.13
2018-09-22T11:59:20.927Z,455.63
2018-09-22T12:00:20.901Z,410.63
2018-09-22T12:01:20.929Z,410.63
2018-09-22T12:02:20.921Z,444.38
2018-09-22T12:03:20.855Z,483.75
2018-09-22T12:04:20.830Z,511.88
2018-09-22T12:05:20.815Z,534.38
2018-09-22T12:06:20.895Z,528.75
2018-09-22T12:07:20.807Z,506.25
2018-09-22T12:08:20.780Z,489.38
2018-09-22T12:09:20.751Z,489.38
2018-09-22T12:10:20.726Z,466.88
2018-09-22T12:11:20.725Z,433.13
2018-09-22T12:12:20.730Z,421.88
2018-09-22T12:13:20.680Z,416.25
2018-09-22T12:14:20.681Z,416.25
2018-09-22T12:15:20.650Z,405.00
2018-09-22T12:16:20.628Z,410.63
2018-09-22T12:17:20.620Z,416.25
2018-09-22T12:18:20.599Z,427.50
2018-09-22T12:19:20.591Z,433.13
2018-09-22T12:20:20.565Z,433.13
2018-09-22T12:21:20.645Z,410.63
2018-09-22T12:22:20.543Z,399.38
2018-09-22T12:23:20.536Z,399.38
2018-09-22T12:24:20.499Z,399.38
2018-09-22T12:25:20.496Z,382.50
2018-09-22T12:26:20.475Z,399.38
2018-09-22T12:27:20.472Z,405.00
2018-09-22T12:28:20.437Z,371.25
2018-09-22T12:29:20.416Z,343.13
2018-09-22T12:30:20.415Z,331.88
2018-09-22T12:31:20.377Z,320.63
2018-09-22T12:32:20.365Z,343.13
2018-09-22T12:33:20.350Z,360.00
2018-09-22T12:34:20.340Z,382.50
2018-09-22T12:35:20.312Z,410.63
2018-09-22T12:36:20.308Z,421.88
2018-09-22T12:37:20.273Z,421.88
2018-09-22T12:38:20.258Z,388.13
2018-09-22T12:39:20.237Z,343.13
2018-09-22T12:40:20.245Z,354.38
2018-09-22T12:41:20.209Z,376.88
2018-09-22T12:42:20.200Z,371.25
2018-09-22T12:43:20.170Z,348.75
2018-09-22T12:44:20.162Z,326.25
2018-09-22T12:45:20.168Z,303.75
2018-09-22T12:46:20.138Z,281.25
2018-09-22T12:47:20.124Z,270.00
2018-09-22T12:48:20.088Z,258.75
2018-09-22T12:49:20.115Z,253.13
2018-09-22T12:50:20.074Z,253.13